sensor_id;sensor_type;location;lat;lon;timestamp;P1;durP1;ratioP1;P2;durP2;ratioP2
20928;SDS011;21895;47.072;15.132;2023-04-21T00:00:51;6.07;;;3.70;;
20928;SDS011;21895;47.072;15.132;2023-04-21T00:03:20;9.30;;;4.50;;
20928;SDS011;21895;47.072;15.132;2023-04-21T00:05:49;6.53;;;4.20;;
20928;SDS011;21895;47.072;15.132;2023-04-21T00:08:16;7.47;;;4.17;;
20928;SDS011;21895;47.072;15.132;2023-04-21T00:10:44;5.27;;;4.07;;
20928;SDS011;21895;47.072;15.132;2023-04-21T00:13:11;9.90;;;3.63;;
20928;SDS011;21895;47.072;15.132;2023-04-21T00:15:38;7.77;;;4.60;;
20928;SDS011;21895;47.072;15.132;2023-04-21T00:18:05;6.70;;;3.80;;
20928;SDS011;21895;47.072;15.132;2023-04-21T00:20:32;8.33;;;4.13;;
20928;SDS011;21895;47.072;15.132;2023-04-21T00:22:58;6.70;;;3.87;;
20928;SDS011;21895;47.072;15.132;2023-04-21T00:25:25;7.10;;;4.23;;
20928;SDS011;21895;47.072;15.132;2023-04-21T00:27:51;10.47;;;4.40;;
20928;SDS011;21895;47.072;15.132;2023-04-21T00:30:18;6.53;;;4.20;;
20928;SDS011;21895;47.072;15.132;2023-04-21T00:32:45;6.43;;;4.00;;
20928;SDS011;21895;47.072;15.132;2023-04-21T00:35:11;14.13;;;4.13;;
20928;SDS011;21895;47.072;15.132;2023-04-21T00:37:38;5.90;;;4.07;;
20928;SDS011;21895;47.072;15.132;2023-04-21T00:40:06;9.40;;;4.20;;
20928;SDS011;21895;47.072;15.132;2023-04-21T00:42:33;5.63;;;3.60;;
20928;SDS011;21895;47.072;15.132;2023-04-21T00:45:00;5.87;;;3.90;;
20928;SDS011;21895;47.072;15.132;2023-04-21T00:47:30;5.67;;;3.57;;
20928;SDS011;21895;47.072;15.132;2023-04-21T00:49:57;8.13;;;4.03;;
20928;SDS011;21895;47.072;15.132;2023-04-21T00:52:24;6.27;;;4.40;;
20928;SDS011;21895;47.072;15.132;2023-04-21T00:54:52;8.43;;;4.13;;
20928;SDS011;21895;47.072;15.132;2023-04-21T00:57:19;9.93;;;4.53;;
20928;SDS011;21895;47.072;15.132;2023-04-21T00:59:46;15.60;;;4.60;;
20928;SDS011;21895;47.072;15.132;2023-04-21T01:02:17;10.03;;;4.07;;
20928;SDS011;21895;47.072;15.132;2023-04-21T01:04:44;8.47;;;4.40;;
20928;SDS011;21895;47.072;15.132;2023-04-21T01:07:11;6.77;;;4.57;;
20928;SDS011;21895;47.072;15.132;2023-04-21T01:09:37;6.77;;;4.07;;
20928;SDS011;21895;47.072;15.132;2023-04-21T01:12:08;9.20;;;4.07;;
20928;SDS011;21895;47.072;15.132;2023-04-21T01:14:36;8.10;;;4.23;;
20928;SDS011;21895;47.072;15.132;2023-04-21T01:17:05;11.27;;;4.33;;
20928;SDS011;21895;47.072;15.132;2023-04-21T01:19:34;9.73;;;4.00;;
20928;SDS011;21895;47.072;15.132;2023-04-21T01:22:08;5.23;;;3.63;;
20928;SDS011;21895;47.072;15.132;2023-04-21T01:24:37;9.30;;;3.80;;
20928;SDS011;21895;47.072;15.132;2023-04-21T01:27:09;5.63;;;3.67;;
20928;SDS011;21895;47.072;15.132;2023-04-21T01:29:44;11.83;;;3.90;;
20928;SDS011;21895;47.072;15.132;2023-04-21T01:32:15;10.57;;;3.60;;
20928;SDS011;21895;47.072;15.132;2023-04-21T01:34:44;9.43;;;3.97;;
20928;SDS011;21895;47.072;15.132;2023-04-21T01:37:13;11.07;;;3.83;;
20928;SDS011;21895;47.072;15.132;2023-04-21T01:39:44;6.80;;;3.87;;
20928;SDS011;21895;47.072;15.132;2023-04-21T01:42:16;6.10;;;3.60;;
20928;SDS011;21895;47.072;15.132;2023-04-21T01:44:44;7.13;;;3.90;;
20928;SDS011;21895;47.072;15.132;2023-04-21T01:47:11;6.37;;;4.03;;
20928;SDS011;21895;47.072;15.132;2023-04-21T01:49:38;6.33;;;3.90;;
20928;SDS011;21895;47.072;15.132;2023-04-21T01:52:04;7.70;;;4.17;;
20928;SDS011;21895;47.072;15.132;2023-04-21T01:54:31;7.90;;;4.17;;
20928;SDS011;21895;47.072;15.132;2023-04-21T01:56:57;6.20;;;3.57;;
20928;SDS011;21895;47.072;15.132;2023-04-21T01:59:24;8.47;;;4.10;;
20928;SDS011;21895;47.072;15.132;2023-04-21T02:01:51;8.37;;;4.60;;
20928;SDS011;21895;47.072;15.132;2023-04-21T02:04:17;9.87;;;4.17;;
20928;SDS011;21895;47.072;15.132;2023-04-21T02:06:44;7.23;;;4.10;;
20928;SDS011;21895;47.072;15.132;2023-04-21T02:09:11;6.27;;;3.87;;
20928;SDS011;21895;47.072;15.132;2023-04-21T02:11:37;6.70;;;3.77;;
20928;SDS011;21895;47.072;15.132;2023-04-21T02:14:04;5.60;;;3.47;;
20928;SDS011;21895;47.072;15.132;2023-04-21T02:16:30;7.33;;;3.50;;
20928;SDS011;21895;47.072;15.132;2023-04-21T02:18:57;9.43;;;4.07;;
20928;SDS011;21895;47.072;15.132;2023-04-21T02:21:27;6.70;;;3.30;;
20928;SDS011;21895;47.072;15.132;2023-04-21T02:23:54;7.40;;;3.70;;
20928;SDS011;21895;47.072;15.132;2023-04-21T02:26:20;5.53;;;3.50;;
20928;SDS011;21895;47.072;15.132;2023-04-21T02:28:47;5.67;;;3.47;;
20928;SDS011;21895;47.072;15.132;2023-04-21T02:31:15;5.20;;;2.97;;
20928;SDS011;21895;47.072;15.132;2023-04-21T02:33:43;7.77;;;3.40;;
20928;SDS011;21895;47.072;15.132;2023-04-21T02:36:10;7.17;;;3.40;;
20928;SDS011;21895;47.072;15.132;2023-04-21T02:38:37;8.80;;;3.47;;
20928;SDS011;21895;47.072;15.132;2023-04-21T02:41:03;7.80;;;3.97;;
20928;SDS011;21895;47.072;15.132;2023-04-21T02:43:30;5.23;;;3.60;;
20928;SDS011;21895;47.072;15.132;2023-04-21T02:46:05;8.40;;;4.57;;
20928;SDS011;21895;47.072;15.132;2023-04-21T02:48:36;9.73;;;4.20;;
20928;SDS011;21895;47.072;15.132;2023-04-21T02:51:03;6.07;;;3.70;;
20928;SDS011;21895;47.072;15.132;2023-04-21T02:53:29;5.30;;;3.60;;
20928;SDS011;21895;47.072;15.132;2023-04-21T02:55:56;7.43;;;4.07;;
20928;SDS011;21895;47.072;15.132;2023-04-21T02:58:22;8.57;;;3.53;;
20928;SDS011;21895;47.072;15.132;2023-04-21T03:00:50;9.23;;;3.70;;
20928;SDS011;21895;47.072;15.132;2023-04-21T03:03:16;6.00;;;3.23;;
20928;SDS011;21895;47.072;15.132;2023-04-21T03:05:43;9.40;;;3.30;;
20928;SDS011;21895;47.072;15.132;2023-04-21T03:08:10;7.30;;;3.43;;
20928;SDS011;21895;47.072;15.132;2023-04-21T03:10:36;5.73;;;3.87;;
20928;SDS011;21895;47.072;15.132;2023-04-21T03:13:03;4.27;;;3.07;;
20928;SDS011;21895;47.072;15.132;2023-04-21T03:15:30;6.20;;;3.40;;
20928;SDS011;21895;47.072;15.132;2023-04-21T03:17:56;4.60;;;3.47;;
20928;SDS011;21895;47.072;15.132;2023-04-21T03:20:23;6.50;;;3.50;;
20928;SDS011;21895;47.072;15.132;2023-04-21T03:22:51;5.53;;;3.60;;
20928;SDS011;21895;47.072;15.132;2023-04-21T03:25:18;8.53;;;3.73;;
20928;SDS011;21895;47.072;15.132;2023-04-21T03:27:45;7.57;;;3.27;;
20928;SDS011;21895;47.072;15.132;2023-04-21T03:30:11;5.87;;;3.47;;
20928;SDS011;21895;47.072;15.132;2023-04-21T03:32:38;6.73;;;3.30;;
20928;SDS011;21895;47.072;15.132;2023-04-21T03:35:04;5.40;;;3.93;;
20928;SDS011;21895;47.072;15.132;2023-04-21T03:37:31;7.33;;;4.17;;
20928;SDS011;21895;47.072;15.132;2023-04-21T03:39:58;5.83;;;4.13;;
20928;SDS011;21895;47.072;15.132;2023-04-21T03:42:24;6.90;;;3.93;;
20928;SDS011;21895;47.072;15.132;2023-04-21T03:44:51;5.57;;;3.70;;
20928;SDS011;21895;47.072;15.132;2023-04-21T03:47:17;10.33;;;3.93;;
20928;SDS011;21895;47.072;15.132;2023-04-21T03:49:44;6.20;;;4.00;;
20928;SDS011;21895;47.072;15.132;2023-04-21T03:52:10;8.20;;;3.50;;
20928;SDS011;21895;47.072;15.132;2023-04-21T03:54:37;5.63;;;3.90;;
20928;SDS011;21895;47.072;15.132;2023-04-21T03:57:03;7.30;;;3.83;;
20928;SDS011;21895;47.072;15.132;2023-04-21T03:59:30;7.93;;;3.73;;
20928;SDS011;21895;47.072;15.132;2023-04-21T04:01:56;11.93;;;4.50;;
20928;SDS011;21895;47.072;15.132;2023-04-21T04:04:23;8.33;;;3.87;;
20928;SDS011;21895;47.072;15.132;2023-04-21T04:06:50;12.13;;;4.50;;
20928;SDS011;21895;47.072;15.132;2023-04-21T04:09:17;6.63;;;4.10;;
20928;SDS011;21895;47.072;15.132;2023-04-21T04:11:43;8.07;;;4.40;;
20928;SDS011;21895;47.072;15.132;2023-04-21T04:14:10;8.87;;;4.23;;
20928;SDS011;21895;47.072;15.132;2023-04-21T04:16:36;6.83;;;4.80;;
20928;SDS011;21895;47.072;15.132;2023-04-21T04:19:03;5.97;;;4.03;;
20928;SDS011;21895;47.072;15.132;2023-04-21T04:21:32;11.33;;;4.43;;
20928;SDS011;21895;47.072;15.132;2023-04-21T04:23:59;9.57;;;4.00;;
20928;SDS011;21895;47.072;15.132;2023-04-21T04:26:26;10.57;;;4.60;;
20928;SDS011;21895;47.072;15.132;2023-04-21T04:28:53;16.67;;;4.87;;
20928;SDS011;21895;47.072;15.132;2023-04-21T04:31:21;5.43;;;3.70;;
20928;SDS011;21895;47.072;15.132;2023-04-21T04:33:50;11.10;;;3.87;;
20928;SDS011;21895;47.072;15.132;2023-04-21T04:36:20;6.13;;;3.80;;
20928;SDS011;21895;47.072;15.132;2023-04-21T04:38:47;12.97;;;4.57;;
20928;SDS011;21895;47.072;15.132;2023-04-21T04:41:14;12.77;;;5.07;;
20928;SDS011;21895;47.072;15.132;2023-04-21T04:43:41;6.47;;;4.60;;
20928;SDS011;21895;47.072;15.132;2023-04-21T04:46:08;8.40;;;4.77;;
20928;SDS011;21895;47.072;15.132;2023-04-21T04:48:37;12.60;;;5.20;;
20928;SDS011;21895;47.072;15.132;2023-04-21T04:51:04;10.33;;;5.10;;
20928;SDS011;21895;47.072;15.132;2023-04-21T04:53:31;14.10;;;5.60;;
20928;SDS011;21895;47.072;15.132;2023-04-21T04:55:58;13.10;;;5.10;;
20928;SDS011;21895;47.072;15.132;2023-04-21T04:58:24;10.27;;;5.60;;
20928;SDS011;21895;47.072;15.132;2023-04-21T05:00:51;13.97;;;6.70;;
20928;SDS011;21895;47.072;15.132;2023-04-21T05:03:17;14.27;;;6.67;;
20928;SDS011;21895;47.072;15.132;2023-04-21T05:05:44;13.23;;;7.13;;
20928;SDS011;21895;47.072;15.132;2023-04-21T05:08:11;16.17;;;8.03;;
20928;SDS011;21895;47.072;15.132;2023-04-21T05:10:37;15.03;;;7.43;;
20928;SDS011;21895;47.072;15.132;2023-04-21T05:13:04;13.27;;;7.03;;
20928;SDS011;21895;47.072;15.132;2023-04-21T05:15:31;15.93;;;8.03;;
20928;SDS011;21895;47.072;15.132;2023-04-21T05:17:57;9.57;;;5.63;;
20928;SDS011;21895;47.072;15.132;2023-04-21T05:20:24;10.00;;;5.47;;
20928;SDS011;21895;47.072;15.132;2023-04-21T05:22:50;8.70;;;4.77;;
20928;SDS011;21895;47.072;15.132;2023-04-21T05:25:17;7.10;;;4.70;;
20928;SDS011;21895;47.072;15.132;2023-04-21T05:27:43;10.43;;;4.40;;
20928;SDS011;21895;47.072;15.132;2023-04-21T05:30:10;10.33;;;5.27;;
20928;SDS011;21895;47.072;15.132;2023-04-21T05:32:39;15.20;;;5.80;;
20928;SDS011;21895;47.072;15.132;2023-04-21T05:35:06;15.60;;;6.23;;
20928;SDS011;21895;47.072;15.132;2023-04-21T05:37:33;8.80;;;5.57;;
20928;SDS011;21895;47.072;15.132;2023-04-21T05:39:59;14.40;;;5.23;;
20928;SDS011;21895;47.072;15.132;2023-04-21T05:42:26;12.17;;;5.80;;
20928;SDS011;21895;47.072;15.132;2023-04-21T05:44:53;11.03;;;5.53;;
20928;SDS011;21895;47.072;15.132;2023-04-21T05:47:19;11.67;;;4.80;;
20928;SDS011;21895;47.072;15.132;2023-04-21T05:49:46;8.73;;;4.90;;
20928;SDS011;21895;47.072;15.132;2023-04-21T05:52:16;12.10;;;5.73;;
20928;SDS011;21895;47.072;15.132;2023-04-21T05:54:43;10.30;;;5.80;;
20928;SDS011;21895;47.072;15.132;2023-04-21T05:57:09;10.40;;;5.37;;
20928;SDS011;21895;47.072;15.132;2023-04-21T05:59:36;12.93;;;4.97;;
20928;SDS011;21895;47.072;15.132;2023-04-21T06:02:02;10.90;;;5.13;;
20928;SDS011;21895;47.072;15.132;2023-04-21T06:04:29;9.40;;;5.30;;
20928;SDS011;21895;47.072;15.132;2023-04-21T06:06:56;9.63;;;5.07;;
20928;SDS011;21895;47.072;15.132;2023-04-21T06:09:23;16.37;;;4.93;;
20928;SDS011;21895;47.072;15.132;2023-04-21T06:11:49;7.80;;;4.53;;
20928;SDS011;21895;47.072;15.132;2023-04-21T06:14:16;7.63;;;4.60;;
20928;SDS011;21895;47.072;15.132;2023-04-21T06:16:43;10.30;;;4.43;;
20928;SDS011;21895;47.072;15.132;2023-04-21T06:19:09;6.43;;;4.40;;
20928;SDS011;21895;47.072;15.132;2023-04-21T06:21:36;9.87;;;4.20;;
20928;SDS011;21895;47.072;15.132;2023-04-21T06:24:03;5.47;;;4.37;;
20928;SDS011;21895;47.072;15.132;2023-04-21T06:26:30;8.37;;;5.17;;
20928;SDS011;21895;47.072;15.132;2023-04-21T06:28:56;6.63;;;4.57;;
20928;SDS011;21895;47.072;15.132;2023-04-21T06:31:23;7.40;;;4.60;;
20928;SDS011;21895;47.072;15.132;2023-04-21T06:33:49;8.37;;;4.70;;
20928;SDS011;21895;47.072;15.132;2023-04-21T06:36:16;12.07;;;4.57;;
20928;SDS011;21895;47.072;15.132;2023-04-21T06:38:43;7.17;;;5.40;;
20928;SDS011;21895;47.072;15.132;2023-04-21T06:41:10;12.33;;;5.50;;
20928;SDS011;21895;47.072;15.132;2023-04-21T06:43:37;7.77;;;5.17;;
20928;SDS011;21895;47.072;15.132;2023-04-21T06:46:03;7.67;;;4.63;;
20928;SDS011;21895;47.072;15.132;2023-04-21T06:48:30;13.13;;;5.00;;
20928;SDS011;21895;47.072;15.132;2023-04-21T06:50:56;7.20;;;4.50;;
20928;SDS011;21895;47.072;15.132;2023-04-21T06:53:23;16.23;;;5.07;;
20928;SDS011;21895;47.072;15.132;2023-04-21T06:55:49;19.67;;;5.10;;
20928;SDS011;21895;47.072;15.132;2023-04-21T06:58:17;9.67;;;4.63;;
20928;SDS011;21895;47.072;15.132;2023-04-21T07:00:46;7.70;;;5.10;;
20928;SDS011;21895;47.072;15.132;2023-04-21T07:03:13;12.37;;;5.20;;
20928;SDS011;21895;47.072;15.132;2023-04-21T07:05:40;8.70;;;5.13;;
20928;SDS011;21895;47.072;15.132;2023-04-21T07:08:06;9.63;;;5.20;;
20928;SDS011;21895;47.072;15.132;2023-04-21T07:10:33;11.63;;;5.30;;
20928;SDS011;21895;47.072;15.132;2023-04-21T07:12:59;9.23;;;5.03;;
20928;SDS011;21895;47.072;15.132;2023-04-21T07:15:26;10.87;;;5.10;;
20928;SDS011;21895;47.072;15.132;2023-04-21T07:17:52;10.47;;;5.23;;
20928;SDS011;21895;47.072;15.132;2023-04-21T07:20:19;10.80;;;5.20;;
20928;SDS011;21895;47.072;15.132;2023-04-21T07:22:45;9.90;;;5.07;;
20928;SDS011;21895;47.072;15.132;2023-04-21T07:25:12;9.33;;;5.47;;
20928;SDS011;21895;47.072;15.132;2023-04-21T07:27:39;11.67;;;5.60;;
20928;SDS011;21895;47.072;15.132;2023-04-21T07:30:05;15.10;;;5.47;;
20928;SDS011;21895;47.072;15.132;2023-04-21T07:32:33;16.93;;;5.80;;
20928;SDS011;21895;47.072;15.132;2023-04-21T07:35:01;13.97;;;5.77;;
20928;SDS011;21895;47.072;15.132;2023-04-21T07:37:27;10.23;;;5.00;;
20928;SDS011;21895;47.072;15.132;2023-04-21T07:39:54;12.27;;;5.20;;
20928;SDS011;21895;47.072;15.132;2023-04-21T07:42:21;9.98;;;4.78;;
20928;SDS011;21895;47.072;15.132;2023-04-21T07:44:47;17.00;;;5.47;;
20928;SDS011;21895;47.072;15.132;2023-04-21T07:47:14;12.20;;;5.72;;
20928;SDS011;21895;47.072;15.132;2023-04-21T07:49:40;16.83;;;5.77;;
20928;SDS011;21895;47.072;15.132;2023-04-21T07:52:07;16.33;;;6.03;;
20928;SDS011;21895;47.072;15.132;2023-04-21T07:54:33;17.08;;;5.30;;
20928;SDS011;21895;47.072;15.132;2023-04-21T07:57:00;21.80;;;5.62;;
20928;SDS011;21895;47.072;15.132;2023-04-21T07:59:27;14.87;;;6.25;;
20928;SDS011;21895;47.072;15.132;2023-04-21T08:01:53;8.48;;;5.40;;
20928;SDS011;21895;47.072;15.132;2023-04-21T08:04:20;9.55;;;5.25;;
20928;SDS011;21895;47.072;15.132;2023-04-21T08:06:47;11.55;;;5.18;;
20928;SDS011;21895;47.072;15.132;2023-04-21T08:09:13;10.50;;;5.03;;
20928;SDS011;21895;47.072;15.132;2023-04-21T08:11:40;16.43;;;5.50;;
20928;SDS011;21895;47.072;15.132;2023-04-21T08:14:06;18.00;;;5.70;;
20928;SDS011;21895;47.072;15.132;2023-04-21T08:16:34;8.90;;;5.70;;
20928;SDS011;21895;47.072;15.132;2023-04-21T08:19:01;8.60;;;5.47;;
20928;SDS011;21895;47.072;15.132;2023-04-21T08:21:28;16.27;;;5.70;;
20928;SDS011;21895;47.072;15.132;2023-04-21T08:23:56;8.02;;;5.15;;
20928;SDS011;21895;47.072;15.132;2023-04-21T08:26:23;12.30;;;5.85;;
20928;SDS011;21895;47.072;15.132;2023-04-21T08:28:50;13.62;;;5.32;;
20928;SDS011;21895;47.072;15.132;2023-04-21T08:31:17;7.43;;;5.05;;
20928;SDS011;21895;47.072;15.132;2023-04-21T08:33:44;7.30;;;5.05;;
20928;SDS011;21895;47.072;15.132;2023-04-21T08:36:27;7.68;;;5.00;;
20928;SDS011;21895;47.072;15.132;2023-04-21T08:38:55;8.35;;;5.05;;
20928;SDS011;21895;47.072;15.132;2023-04-21T08:41:23;8.52;;;4.90;;
20928;SDS011;21895;47.072;15.132;2023-04-21T08:43:51;7.97;;;5.05;;
20928;SDS011;21895;47.072;15.132;2023-04-21T08:46:17;10.20;;;5.50;;
20928;SDS011;21895;47.072;15.132;2023-04-21T08:48:45;9.35;;;5.72;;
20928;SDS011;21895;47.072;15.132;2023-04-21T08:51:13;10.85;;;4.95;;
20928;SDS011;21895;47.072;15.132;2023-04-21T08:53:47;10.73;;;5.50;;
20928;SDS011;21895;47.072;15.132;2023-04-21T08:56:13;9.45;;;5.72;;
20928;SDS011;21895;47.072;15.132;2023-04-21T08:58:40;8.93;;;5.55;;
20928;SDS011;21895;47.072;15.132;2023-04-21T09:01:07;9.45;;;5.82;;
20928;SDS011;21895;47.072;15.132;2023-04-21T09:03:33;9.57;;;5.95;;
20928;SDS011;21895;47.072;15.132;2023-04-21T09:06:01;10.27;;;5.68;;
20928;SDS011;21895;47.072;15.132;2023-04-21T09:08:31;10.20;;;5.87;;
20928;SDS011;21895;47.072;15.132;2023-04-21T09:10:59;10.15;;;6.80;;
20928;SDS011;21895;47.072;15.132;2023-04-21T09:13:30;9.83;;;5.93;;
20928;SDS011;21895;47.072;15.132;2023-04-21T09:15:59;7.97;;;5.75;;
20928;SDS011;21895;47.072;15.132;2023-04-21T09:18:31;9.18;;;6.22;;
20928;SDS011;21895;47.072;15.132;2023-04-21T09:21:05;9.02;;;6.30;;
20928;SDS011;21895;47.072;15.132;2023-04-21T09:23:46;11.10;;;6.70;;
20928;SDS011;21895;47.072;15.132;2023-04-21T09:26:18;9.90;;;6.10;;
20928;SDS011;21895;47.072;15.132;2023-04-21T09:28:50;17.30;;;7.18;;
20928;SDS011;21895;47.072;15.132;2023-04-21T09:31:21;13.40;;;6.75;;
20928;SDS011;21895;47.072;15.132;2023-04-21T09:33:50;13.68;;;6.53;;
20928;SDS011;21895;47.072;15.132;2023-04-21T09:36:26;8.10;;;6.12;;
20928;SDS011;21895;47.072;15.132;2023-04-21T09:38:57;12.80;;;6.43;;
20928;SDS011;21895;47.072;15.132;2023-04-21T09:41:29;9.70;;;6.50;;
20928;SDS011;21895;47.072;15.132;2023-04-21T09:43:57;12.07;;;6.68;;
20928;SDS011;21895;47.072;15.132;2023-04-21T09:46:29;12.88;;;6.40;;
20928;SDS011;21895;47.072;15.132;2023-04-21T09:49:00;16.08;;;7.03;;
20928;SDS011;21895;47.072;15.132;2023-04-21T09:51:27;11.55;;;6.75;;
20928;SDS011;21895;47.072;15.132;2023-04-21T09:54:31;9.05;;;6.50;;
20928;SDS011;21895;47.072;15.132;2023-04-21T09:57:02;12.75;;;6.68;;
20928;SDS011;21895;47.072;15.132;2023-04-21T09:59:33;13.50;;;6.60;;
20928;SDS011;21895;47.072;15.132;2023-04-21T10:02:05;10.73;;;6.82;;
20928;SDS011;21895;47.072;15.132;2023-04-21T10:04:35;14.60;;;7.30;;
20928;SDS011;21895;47.072;15.132;2023-04-21T10:07:03;14.27;;;7.97;;
20928;SDS011;21895;47.072;15.132;2023-04-21T10:12:19;13.75;;;8.38;;
20928;SDS011;21895;47.072;15.132;2023-04-21T10:14:56;11.55;;;8.07;;
20928;SDS011;21895;47.072;15.132;2023-04-21T10:17:23;18.40;;;9.88;;
20928;SDS011;21895;47.072;15.132;2023-04-21T10:19:52;11.73;;;8.25;;
20928;SDS011;21895;47.072;15.132;2023-04-21T10:22:29;12.07;;;7.97;;
20928;SDS011;21895;47.072;15.132;2023-04-21T10:25:00;14.25;;;8.90;;
20928;SDS011;21895;47.072;15.132;2023-04-21T10:27:34;22.42;;;9.88;;
20928;SDS011;21895;47.072;15.132;2023-04-21T10:30:23;18.12;;;9.98;;
20928;SDS011;21895;47.072;15.132;2023-04-21T10:33:02;15.23;;;10.35;;
20928;SDS011;21895;47.072;15.132;2023-04-21T10:39:52;13.43;;;8.82;;
20928;SDS011;21895;47.072;15.132;2023-04-21T10:42:24;14.43;;;9.40;;
20928;SDS011;21895;47.072;15.132;2023-04-21T10:45:03;16.40;;;9.60;;
20928;SDS011;21895;47.072;15.132;2023-04-21T10:47:37;22.02;;;9.23;;
20928;SDS011;21895;47.072;15.132;2023-04-21T10:50:24;17.33;;;9.00;;
20928;SDS011;21895;47.072;15.132;2023-04-21T10:53:06;16.50;;;9.57;;
20928;SDS011;21895;47.072;15.132;2023-04-21T10:55:35;15.70;;;9.18;;
20928;SDS011;21895;47.072;15.132;2023-04-21T10:58:04;18.65;;;10.73;;
20928;SDS011;21895;47.072;15.132;2023-04-21T11:00:36;18.90;;;11.18;;
20928;SDS011;21895;47.072;15.132;2023-04-21T11:03:04;16.58;;;10.50;;
20928;SDS011;21895;47.072;15.132;2023-04-21T11:05:33;15.32;;;7.87;;
20928;SDS011;21895;47.072;15.132;2023-04-21T11:08:14;10.05;;;6.50;;
20928;SDS011;21895;47.072;15.132;2023-04-21T11:10:51;10.70;;;6.20;;
20928;SDS011;21895;47.072;15.132;2023-04-21T11:13:21;12.93;;;6.25;;
20928;SDS011;21895;47.072;15.132;2023-04-21T11:16:00;10.70;;;7.32;;
20928;SDS011;21895;47.072;15.132;2023-04-21T11:18:37;12.32;;;6.57;;
20928;SDS011;21895;47.072;15.132;2023-04-21T11:21:16;9.75;;;6.32;;
20928;SDS011;21895;47.072;15.132;2023-04-21T11:23:47;10.43;;;7.20;;
20928;SDS011;21895;47.072;15.132;2023-04-21T11:26:29;14.98;;;7.35;;
20928;SDS011;21895;47.072;15.132;2023-04-21T11:29:06;16.12;;;8.90;;
20928;SDS011;21895;47.072;15.132;2023-04-21T11:31:35;12.65;;;8.48;;
20928;SDS011;21895;47.072;15.132;2023-04-21T11:34:06;17.58;;;10.27;;
20928;SDS011;21895;47.072;15.132;2023-04-21T11:36:33;19.60;;;10.13;;
20928;SDS011;21895;47.072;15.132;2023-04-21T11:39:04;20.45;;;10.52;;
20928;SDS011;21895;47.072;15.132;2023-04-21T11:41:35;17.73;;;10.90;;
20928;SDS011;21895;47.072;15.132;2023-04-21T11:44:07;15.73;;;9.35;;
20928;SDS011;21895;47.072;15.132;2023-04-21T11:46:44;20.25;;;9.20;;
20928;SDS011;21895;47.072;15.132;2023-04-21T11:49:12;15.15;;;8.85;;
20928;SDS011;21895;47.072;15.132;2023-04-21T11:51:41;16.45;;;9.00;;
20928;SDS011;21895;47.072;15.132;2023-04-21T11:54:09;13.45;;;8.70;;
20928;SDS011;21895;47.072;15.132;2023-04-21T11:56:38;13.13;;;8.60;;
20928;SDS011;21895;47.072;15.132;2023-04-21T11:59:10;13.80;;;8.75;;
20928;SDS011;21895;47.072;15.132;2023-04-21T12:01:51;16.23;;;7.87;;
20928;SDS011;21895;47.072;15.132;2023-04-21T12:04:21;13.65;;;7.82;;
20928;SDS011;21895;47.072;15.132;2023-04-21T12:07:00;14.32;;;7.90;;
20928;SDS011;21895;47.072;15.132;2023-04-21T12:09:28;10.10;;;6.82;;
20928;SDS011;21895;47.072;15.132;2023-04-21T12:11:56;13.27;;;7.47;;
20928;SDS011;21895;47.072;15.132;2023-04-21T12:14:24;11.95;;;8.10;;
20928;SDS011;21895;47.072;15.132;2023-04-21T12:16:54;15.95;;;7.68;;
20928;SDS011;21895;47.072;15.132;2023-04-21T12:19:23;12.10;;;8.05;;
20928;SDS011;21895;47.072;15.132;2023-04-21T12:22:05;12.25;;;7.50;;
20928;SDS011;21895;47.072;15.132;2023-04-21T12:24:47;12.20;;;7.47;;
20928;SDS011;21895;47.072;15.132;2023-04-21T12:27:14;13.07;;;7.82;;
20928;SDS011;21895;47.072;15.132;2023-04-21T12:29:40;12.77;;;7.97;;
20928;SDS011;21895;47.072;15.132;2023-04-21T12:32:07;15.98;;;7.62;;
20928;SDS011;21895;47.072;15.132;2023-04-21T12:34:34;12.30;;;7.40;;
20928;SDS011;21895;47.072;15.132;2023-04-21T12:37:01;14.38;;;8.02;;
20928;SDS011;21895;47.072;15.132;2023-04-21T12:39:28;13.10;;;8.50;;
20928;SDS011;21895;47.072;15.132;2023-04-21T12:41:56;19.65;;;8.60;;
20928;SDS011;21895;47.072;15.132;2023-04-21T12:44:23;10.38;;;7.10;;
20928;SDS011;21895;47.072;15.132;2023-04-21T12:46:50;18.23;;;7.18;;
20928;SDS011;21895;47.072;15.132;2023-04-21T12:49:17;12.55;;;7.30;;
20928;SDS011;21895;47.072;15.132;2023-04-21T12:51:44;12.85;;;6.55;;
20928;SDS011;21895;47.072;15.132;2023-04-21T12:54:11;11.68;;;7.05;;
20928;SDS011;21895;47.072;15.132;2023-04-21T12:56:38;11.73;;;7.53;;
20928;SDS011;21895;47.072;15.132;2023-04-21T12:59:06;11.32;;;6.47;;
20928;SDS011;21895;47.072;15.132;2023-04-21T13:01:34;9.25;;;6.12;;
20928;SDS011;21895;47.072;15.132;2023-04-21T13:04:02;7.65;;;5.40;;
20928;SDS011;21895;47.072;15.132;2023-04-21T13:06:30;10.35;;;5.40;;
20928;SDS011;21895;47.072;15.132;2023-04-21T13:08:58;8.85;;;5.40;;
20928;SDS011;21895;47.072;15.132;2023-04-21T13:11:25;9.07;;;4.72;;
20928;SDS011;21895;47.072;15.132;2023-04-21T13:13:51;7.45;;;5.47;;
20928;SDS011;21895;47.072;15.132;2023-04-21T13:16:18;8.27;;;5.32;;
20928;SDS011;21895;47.072;15.132;2023-04-21T13:18:44;11.55;;;4.95;;
20928;SDS011;21895;47.072;15.132;2023-04-21T13:21:11;11.02;;;5.62;;
20928;SDS011;21895;47.072;15.132;2023-04-21T13:23:38;7.60;;;5.45;;
20928;SDS011;21895;47.072;15.132;2023-04-21T13:26:05;6.20;;;4.00;;
20928;SDS011;21895;47.072;15.132;2023-04-21T13:28:33;7.30;;;4.23;;
20928;SDS011;21895;47.072;15.132;2023-04-21T13:30:59;7.03;;;4.60;;
20928;SDS011;21895;47.072;15.132;2023-04-21T13:33:26;5.90;;;4.32;;
20928;SDS011;21895;47.072;15.132;2023-04-21T13:35:52;6.73;;;4.27;;
20928;SDS011;21895;47.072;15.132;2023-04-21T13:38:19;8.15;;;4.32;;
20928;SDS011;21895;47.072;15.132;2023-04-21T13:40:46;6.10;;;4.17;;
20928;SDS011;21895;47.072;15.132;2023-04-21T13:43:13;10.47;;;4.70;;
20928;SDS011;21895;47.072;15.132;2023-04-21T13:45:40;8.50;;;4.07;;
20928;SDS011;21895;47.072;15.132;2023-04-21T13:48:06;6.87;;;4.10;;
20928;SDS011;21895;47.072;15.132;2023-04-21T13:50:33;9.38;;;4.82;;
20928;SDS011;21895;47.072;15.132;2023-04-21T13:52:59;5.30;;;3.77;;
20928;SDS011;21895;47.072;15.132;2023-04-21T13:55:26;3.87;;;2.90;;
20928;SDS011;21895;47.072;15.132;2023-04-21T13:57:52;6.20;;;3.22;;
20928;SDS011;21895;47.072;15.132;2023-04-21T14:00:19;4.63;;;3.07;;
20928;SDS011;21895;47.072;15.132;2023-04-21T14:02:46;5.60;;;3.87;;
20928;SDS011;21895;47.072;15.132;2023-04-21T14:05:14;6.05;;;3.90;;
20928;SDS011;21895;47.072;15.132;2023-04-21T14:07:41;8.30;;;3.80;;
20928;SDS011;21895;47.072;15.132;2023-04-21T14:10:08;4.70;;;3.40;;
20928;SDS011;21895;47.072;15.132;2023-04-21T14:12:36;7.73;;;3.27;;
20928;SDS011;21895;47.072;15.132;2023-04-21T14:15:06;3.90;;;2.97;;
20928;SDS011;21895;47.072;15.132;2023-04-21T14:17:33;4.80;;;2.90;;
20928;SDS011;21895;47.072;15.132;2023-04-21T14:20:00;4.30;;;2.80;;
20928;SDS011;21895;47.072;15.132;2023-04-21T14:22:26;3.65;;;2.80;;
20928;SDS011;21895;47.072;15.132;2023-04-21T14:24:53;4.12;;;2.55;;
20928;SDS011;21895;47.072;15.132;2023-04-21T14:27:19;5.18;;;3.10;;
20928;SDS011;21895;47.072;15.132;2023-04-21T14:29:46;3.95;;;2.67;;
20928;SDS011;21895;47.072;15.132;2023-04-21T14:32:13;4.55;;;2.60;;
20928;SDS011;21895;47.072;15.132;2023-04-21T14:34:39;6.43;;;2.67;;
20928;SDS011;21895;47.072;15.132;2023-04-21T14:37:06;2.80;;;2.17;;
20928;SDS011;21895;47.072;15.132;2023-04-21T14:39:32;4.07;;;2.93;;
20928;SDS011;21895;47.072;15.132;2023-04-21T14:41:59;6.47;;;3.20;;